Time;durP1;ratioP1;P1;durP2;ratioP2;P2;SDS_P1;SDS_P2;PMS_P1;PMS_P2;Temp;Humidity;BMP_temperature;BMP_pressure;BME280_temperature;BME280_humidity;BME280_pressure;Samples;Min_cycle;Max_cycle;Signal;HPM_P1;HPM_P2
2023/01/23 00:02:36;;;;;;;23.47;18.57;;;2.60;1.00;;;;;;6248589;28;20725;-54
2023/01/23 00:05:41;;;;;;;22.57;17.90;;;2.60;1.00;;;;;;6259288;28;20757;-55
2023/01/23 00:08:45;;;;;;;23.07;18.43;;;2.50;1.00;;;;;;6252564;28;20243;-55
2023/01/23 00:11:48;;;;;;;24.13;17.90;;;2.70;1.00;;;;;;6256641;28;20245;-54
2023/01/23 00:14:51;;;;;;;23.23;18.87;;;2.70;1.00;;;;;;6258263;28;20706;-54
2023/01/23 00:17:54;;;;;;;20.50;16.67;;;2.80;1.00;;;;;;6246328;28;20241;-56
2023/01/23 00:20:59;;;;;;;21.07;17.63;;;2.90;1.00;;;;;;6234023;28;20374;-56
2023/01/23 00:24:02;;;;;;;22.23;17.20;;;2.90;1.00;;;;;;6233984;28;20246;-57
2023/01/23 00:27:05;;;;;;;22.20;16.70;;;2.70;1.00;;;;;;6233478;28;20243;-56
2023/01/23 00:30:09;;;;;;;21.47;18.83;;;2.80;1.00;;;;;;6234193;28;20239;-56
2023/01/23 00:33:14;;;;;;;21.80;17.13;;;2.70;1.00;;;;;;6239651;28;20231;-56
2023/01/23 00:36:18;;;;;;;22.17;17.00;;;2.90;1.00;;;;;;6256208;28;20233;-56
2023/01/23 00:39:22;;;;;;;24.60;18.00;;;2.80;1.00;;;;;;6258186;28;20238;-57
2023/01/23 00:42:25;;;;;;;23.07;18.17;;;2.60;1.00;;;;;;6256748;28;20610;-53
2023/01/23 00:45:28;;;;;;;22.17;17.43;;;2.60;1.00;;;;;;6246399;28;20250;-56
2023/01/23 00:48:31;;;;;;;22.97;18.27;;;2.60;1.00;;;;;;6258105;28;20725;-57
2023/01/23 00:51:36;;;;;;;24.73;17.80;;;2.50;1.00;;;;;;6258379;28;20732;-58
2023/01/23 00:54:39;;;;;;;26.17;18.33;;;2.60;1.00;;;;;;6237856;28;20443;-54
2023/01/23 00:57:42;;;;;;;23.40;18.30;;;2.60;1.00;;;;;;6232876;28;20239;-54
2023/01/23 01:00:45;;;;;;;22.03;18.93;;;2.60;1.00;;;;;;6236384;28;20268;-56
2023/01/23 01:03:48;;;;;;;24.03;17.97;;;2.80;1.00;;;;;;6257651;28;20241;-56
2023/01/23 01:06:53;;;;;;;23.37;18.23;;;3.00;1.00;;;;;;6247201;28;20237;-56
2023/01/23 01:09:56;;;;;;;22.53;18.23;;;2.60;1.00;;;;;;6255157;28;20291;-55
2023/01/23 01:13:01;;;;;;;27.53;19.03;;;2.60;1.00;;;;;;6238305;28;20230;-56
2023/01/23 01:16:05;;;;;;;21.80;17.10;;;2.70;1.00;;;;;;6261652;28;20311;-56
2023/01/23 01:19:08;;;;;;;26.97;18.80;;;2.60;1.00;;;;;;6262112;28;20748;-54
2023/01/23 01:22:12;;;;;;;24.73;19.37;;;2.50;1.00;;;;;;6239322;28;20234;-54
2023/01/23 01:25:15;;;;;;;25.00;18.40;;;2.90;1.00;;;;;;6237863;28;20601;-54
2023/01/23 01:28:18;;;;;;;24.77;18.93;;;2.40;1.00;;;;;;6237712;28;20261;-56
2023/01/23 01:31:21;;;;;;;25.20;18.87;;;2.70;1.00;;;;;;6238011;28;20469;-54
2023/01/23 01:34:25;;;;;;;23.43;17.97;;;2.70;1.00;;;;;;6261297;28;20238;-55
2023/01/23 01:37:32;;;;;;;23.77;17.93;;;2.40;1.00;;;;;;6258272;28;20464;-54
2023/01/23 01:40:36;;;;;;;26.27;19.23;;;2.60;1.00;;;;;;6250713;28;20381;-56
2023/01/23 01:43:40;;;;;;;26.70;18.97;;;2.60;1.00;;;;;;6252986;28;20249;-56
2023/01/23 01:46:44;;;;;;;27.17;18.33;;;2.70;1.00;;;;;;6261266;28;20238;-54
2023/01/23 01:49:48;;;;;;;27.87;19.70;;;2.80;1.00;;;;;;6244815;28;20246;-55
2023/01/23 01:52:53;;;;;;;26.13;19.10;;;2.60;1.00;;;;;;6237707;28;20230;-54
2023/01/23 01:55:57;;;;;;;26.50;19.20;;;2.50;1.00;;;;;;6236786;28;20227;-54
2023/01/23 01:59:01;;;;;;;27.73;19.97;;;2.50;1.00;;;;;;6236385;28;20249;-56
2023/01/23 02:02:09;;;;;;;23.90;18.77;;;2.50;1.00;;;;;;6249018;28;20560;-56
2023/01/23 02:05:15;;;;;;;23.53;18.60;;;2.90;1.00;;;;;;6245938;28;20326;-54
2023/01/23 02:08:24;;;;;;;25.73;19.63;;;2.40;1.00;;;;;;6260407;28;20245;-55
2023/01/23 02:11:28;;;;;;;30.97;20.43;;;2.70;1.00;;;;;;6261580;28;20754;-55
2023/01/23 02:14:31;;;;;;;26.10;20.10;;;2.50;1.00;;;;;;6257991;28;20234;-55
2023/01/23 02:17:37;;;;;;;28.27;20.27;;;2.80;1.00;;;;;;6256563;28;20241;-55
2023/01/23 02:20:40;;;;;;;28.33;19.73;;;2.60;1.00;;;;;;6260633;28;20242;-55
2023/01/23 02:23:56;;;;;;;28.90;20.17;;;2.60;1.00;;;;;;6255700;28;20231;-55
2023/01/23 02:27:02;;;;;;;24.30;18.47;;;2.60;1.00;;;;;;6235623;28;20689;-55
2023/01/23 02:30:07;;;;;;;23.27;17.73;;;2.60;1.00;;;;;;6236044;28;20404;-56
2023/01/23 02:33:11;;;;;;;27.43;19.30;;;2.80;1.00;;;;;;6250340;28;20237;-55
2023/01/23 02:36:14;;;;;;;26.13;18.57;;;2.70;1.00;;;;;;6253223;28;20237;-54
2023/01/23 02:39:19;;;;;;;26.03;19.40;;;2.90;1.00;;;;;;6252737;28;20325;-57
2023/01/23 02:42:24;;;;;;;28.40;19.80;;;2.70;1.00;;;;;;6260162;28;20949;-54
2023/01/23 02:45:27;;;;;;;25.23;18.63;;;2.90;1.00;;;;;;6257561;28;20472;-55
2023/01/23 02:48:30;;;;;;;26.27;19.47;;;2.60;1.00;;;;;;6259601;28;20245;-55
2023/01/23 02:51:33;;;;;;;25.33;19.57;;;2.60;1.00;;;;;;6260671;28;20503;-54
2023/01/23 02:54:38;;;;;;;25.73;19.17;;;2.70;1.00;;;;;;6238863;28;20250;-54
2023/01/23 02:57:44;;;;;;;26.53;19.27;;;2.70;1.00;;;;;;6228608;28;20696;-56
2023/01/23 03:00:46;;;;;;;26.10;19.00;;;2.80;1.00;;;;;;6235357;28;20734;-57
2023/01/23 03:03:52;;;;;;;24.30;18.70;;;3.00;1.00;;;;;;6254465;28;20241;-55
2023/01/23 03:06:55;;;;;;;25.37;18.80;;;2.90;1.00;;;;;;6258459;28;20280;-56
2023/01/23 03:09:58;;;;;;;30.17;19.50;;;3.00;1.00;;;;;;6253730;28;20245;-56
2023/01/23 03:13:06;;;;;;;27.20;18.33;;;2.60;1.00;;;;;;6253279;28;20429;-55
2023/01/23 03:16:09;;;;;;;25.23;19.40;;;2.50;1.00;;;;;;6258999;28;20233;-57
2023/01/23 03:19:12;;;;;;;26.97;19.40;;;2.60;1.00;;;;;;6234270;28;20267;-55
2023/01/23 03:22:15;;;;;;;28.30;19.43;;;2.60;1.00;;;;;;6235718;28;20345;-57
2023/01/23 03:25:18;;;;;;;22.57;18.87;;;2.50;1.00;;;;;;6235072;28;20859;-54
2023/01/23 03:31:43;;;;;;;28.50;20.00;;;2.70;1.00;;;;;;6234345;28;20242;-54
2023/01/23 03:34:46;;;;;;;26.80;19.70;;;2.60;1.00;;;;;;6255138;28;20234;-56
2023/01/23 03:37:51;;;;;;;25.87;18.73;;;2.60;1.00;;;;;;6247521;28;20234;-55
2023/01/23 03:44:17;;;;;;;26.10;18.10;;;2.70;1.00;;;;;;6254834;28;20222;-56
2023/01/23 03:47:20;;;;;;;26.13;18.87;;;2.50;1.00;;;;;;6248525;28;20724;-56
2023/01/23 03:50:23;;;;;;;23.13;18.10;;;2.60;1.00;;;;;;6233651;28;20246;-56
2023/01/23 03:53:26;;;;;;;23.43;18.33;;;2.70;1.00;;;;;;6233391;28;20230;-55
2023/01/23 03:56:29;;;;;;;23.60;19.03;;;2.70;1.00;;;;;;6233653;28;20239;-55
2023/01/23 03:59:34;;;;;;;28.10;20.53;;;2.70;1.00;;;;;;6233688;28;20242;-56
2023/01/23 04:02:37;;;;;;;26.30;19.93;;;2.50;1.00;;;;;;6243686;28;20734;-56
2023/01/23 04:05:40;;;;;;;24.67;19.17;;;2.70;1.00;;;;;;6257585;28;20242;-56
2023/01/23 04:08:43;;;;;;;26.47;19.40;;;2.70;1.00;;;;;;6254404;28;20653;-54
2023/01/23 04:11:46;;;;;;;28.57;20.03;;;2.80;1.00;;;;;;6255481;28;20230;-54
2023/01/23 04:14:51;;;;;;;23.10;18.17;;;2.80;1.00;;;;;;6246884;28;20222;-56
2023/01/23 04:17:55;;;;;;;25.33;19.23;;;2.50;1.00;;;;;;6258504;28;20245;-56
2023/01/23 04:20:58;;;;;;;28.33;19.60;;;2.80;1.00;;;;;;6257903;28;20635;-54
2023/01/23 04:24:01;;;;;;;26.90;19.80;;;2.90;1.00;;;;;;6233062;28;20719;-55
2023/01/23 04:27:04;;;;;;;29.20;20.57;;;2.80;1.00;;;;;;6233263;28;20598;-54
2023/01/23 04:30:10;;;;;;;26.07;20.30;;;2.60;1.00;;;;;;6233610;28;20614;-56
2023/01/23 04:33:13;;;;;;;25.00;19.57;;;2.60;1.00;;;;;;6231296;28;20234;-55
2023/01/23 04:36:17;;;;;;;23.83;18.60;;;2.50;1.00;;;;;;6253008;28;20249;-55
2023/01/23 04:39:20;;;;;;;28.57;20.27;;;2.50;1.00;;;;;;6247722;28;20653;-55
2023/01/23 04:42:23;;;;;;;29.03;21.10;;;2.50;1.00;;;;;;6252144;28;20233;-54
2023/01/23 04:45:27;;;;;;;27.70;19.33;;;2.40;1.00;;;;;;6239206;28;20230;-55
2023/01/23 04:48:30;;;;;;;25.60;19.53;;;2.50;1.00;;;;;;6249576;28;20794;-55
2023/01/23 04:51:33;;;;;;;25.60;20.03;;;2.60;1.00;;;;;;6256038;28;20229;-53
2023/01/23 04:54:36;;;;;;;24.67;18.83;;;2.50;1.00;;;;;;6265507;28;20230;-54
2023/01/23 04:57:39;;;;;;;23.97;18.83;;;2.80;1.00;;;;;;6261755;28;20233;-55
2023/01/23 05:00:44;;;;;;;25.60;19.67;;;2.50;1.00;;;;;;6264795;28;20769;-54
2023/01/23 05:03:47;;;;;;;24.47;19.23;;;2.70;1.00;;;;;;6261676;28;20230;-56
2023/01/23 05:06:50;;;;;;;25.93;19.70;;;2.60;1.00;;;;;;6258064;28;20234;-55
2023/01/23 05:09:53;;;;;;;26.67;19.83;;;2.60;1.00;;;;;;6259480;28;20869;-54
2023/01/23 05:12:56;;;;;;;28.57;20.60;;;2.70;1.00;;;;;;6256360;28;20226;-56
2023/01/23 05:16:00;;;;;;;28.33;20.00;;;2.80;1.00;;;;;;6261842;28;20242;-56
2023/01/23 05:19:04;;;;;;;30.20;21.80;;;2.40;1.00;;;;;;6260034;28;20246;-54
2023/01/23 05:22:07;;;;;;;28.10;20.63;;;2.50;1.00;;;;;;6260976;28;20230;-55
2023/01/23 05:25:10;;;;;;;27.63;19.87;;;2.40;1.00;;;;;;6259117;28;20249;-56
2023/01/23 05:28:13;;;;;;;28.10;20.47;;;2.70;1.00;;;;;;6257045;28;20237;-56
2023/01/23 05:31:17;;;;;;;28.30;20.30;;;2.70;1.00;;;;;;6263997;28;20411;-54
2023/01/23 05:34:21;;;;;;;30.17;21.83;;;2.80;1.00;;;;;;6252283;28;20231;-54
2023/01/23 05:37:25;;;;;;;28.30;20.83;;;2.40;1.00;;;;;;6251992;28;20226;-55
2023/01/23 05:40:28;;;;;;;29.97;20.67;;;2.40;1.00;;;;;;6274068;28;20241;-55
2023/01/23 05:43:31;;;;;;;26.87;21.10;;;2.40;1.00;;;;;;6258811;28;20244;-54
2023/01/23 05:46:35;;;;;;;30.23;21.53;;;2.80;1.00;;;;;;6255171;28;20734;-55
2023/01/23 05:49:38;;;;;;;28.77;20.53;;;2.40;1.00;;;;;;6265591;28;20241;-56
2023/01/23 05:52:41;;;;;;;31.87;20.87;;;2.40;1.00;;;;;;6261853;28;20233;-54
2023/01/23 05:55:44;;;;;;;30.17;21.90;;;2.80;1.00;;;;;;6265405;28;20639;-54
2023/01/23 05:58:47;;;;;;;30.63;21.83;;;2.40;1.00;;;;;;6257206;28;20385;-54
2023/01/23 06:01:52;;;;;;;27.17;20.50;;;2.60;1.00;;;;;;6261639;28;20237;-56
2023/01/23 06:04:55;;;;;;;27.43;19.60;;;2.40;1.00;;;;;;6216243;28;20380;-55
2023/01/23 06:07:58;;;;;;;29.17;21.23;;;2.80;1.00;;;;;;6259457;28;20236;-55
2023/01/23 06:11:01;;;;;;;32.77;22.10;;;2.70;1.00;;;;;;6261085;28;20230;-54
2023/01/23 06:14:04;;;;;;;34.30;22.00;;;2.80;1.00;;;;;;6267996;28;20706;-54
2023/01/23 06:17:11;;;;;;;28.50;21.17;;;2.40;1.00;;;;;;6261487;28;20728;-54
2023/01/23 06:20:14;;;;;;;25.43;20.13;;;2.40;1.00;;;;;;6250702;28;20246;-54
2023/01/23 06:23:18;;;;;;;31.80;21.40;;;2.80;1.00;;;;;;6245035;28;20237;-56
2023/01/23 06:26:21;;;;;;;29.17;20.93;;;2.60;1.00;;;;;;6257854;28;20244;-57
2023/01/23 06:29:24;;;;;;;30.07;21.87;;;2.40;1.00;;;;;;6261353;28;20241;-55
2023/01/23 06:32:28;;;;;;;29.90;21.63;;;2.50;1.00;;;;;;6258865;28;20233;-53
2023/01/23 06:35:31;;;;;;;27.67;20.83;;;2.60;1.00;;;;;;6251669;28;20230;-55
2023/01/23 06:38:34;;;;;;;28.87;20.53;;;2.70;1.00;;;;;;6254380;28;20903;-54
2023/01/23 06:41:37;;;;;;;28.53;20.33;;;2.70;1.00;;;;;;6272467;28;20222;-56
2023/01/23 06:44:42;;;;;;;25.50;19.77;;;2.80;1.00;;;;;;6258005;28;20233;-54
2023/01/23 06:47:46;;;;;;;25.53;20.80;;;2.70;1.00;;;;;;6255418;28;20671;-56
2023/01/23 06:50:49;;;;;;;26.30;20.10;;;2.70;1.00;;;;;;6259477;28;20242;-54
2023/01/23 06:53:52;;;;;;;28.00;20.20;;;2.70;1.00;;;;;;6258630;28;20600;-55
2023/01/23 06:56:55;;;;;;;27.47;20.23;;;2.50;1.00;;;;;;6252347;28;20241;-55
2023/01/23 06:59:58;;;;;;;31.17;22.23;;;2.50;1.00;;;;;;6250942;28;20632;-56
2023/01/23 07:03:03;;;;;;;26.20;19.17;;;2.40;1.00;;;;;;6266638;28;20704;-55
2023/01/23 07:06:06;;;;;;;27.87;20.17;;;2.80;1.00;;;;;;6257457;28;20253;-55
2023/01/23 07:09:09;;;;;;;28.60;20.80;;;2.80;1.00;;;;;;6261683;28;20249;-56
2023/01/23 07:12:13;;;;;;;28.97;20.30;;;2.60;1.00;;;;;;6257366;28;20245;-55
2023/01/23 07:15:16;;;;;;;27.80;19.77;;;2.60;1.00;;;;;;6252205;28;20389;-54
2023/01/23 07:18:21;;;;;;;29.37;21.90;;;2.80;1.00;;;;;;6258425;28;20600;-55
2023/01/23 07:21:24;;;;;;;30.07;20.57;;;2.70;1.00;;;;;;6258580;28;20233;-54
2023/01/23 07:24:30;;;;;;;29.93;21.70;;;2.80;1.00;;;;;;6253579;28;20588;-55
2023/01/23 07:27:33;;;;;;;30.33;20.77;;;2.60;1.00;;;;;;6258924;28;20694;-54
2023/01/23 07:30:36;;;;;;;27.67;20.63;;;2.60;1.00;;;;;;6258190;28;20230;-56
2023/01/23 07:33:41;;;;;;;28.13;21.70;;;2.50;1.00;;;;;;6255394;28;20364;-56
2023/01/23 07:36:44;;;;;;;29.20;20.43;;;2.80;1.00;;;;;;6247762;28;20242;-53
2023/01/23 07:39:47;;;;;;;26.73;20.83;;;2.80;1.00;;;;;;6256243;28;20241;-54
2023/01/23 07:42:50;;;;;;;30.70;20.80;;;2.50;1.00;;;;;;6255466;28;20234;-55
2023/01/23 07:45:54;;;;;;;27.83;20.40;;;2.50;1.00;;;;;;6250438;28;20342;-56
2023/01/23 07:48:58;;;;;;;28.30;20.80;;;2.60;1.00;;;;;;6259142;28;20229;-54
2023/01/23 07:52:01;;;;;;;29.47;21.07;;;2.50;1.00;;;;;;6256986;28;20234;-55
2023/01/23 07:55:05;;;;;;;30.77;22.27;;;2.50;1.00;;;;;;6251054;28;20492;-55
2023/01/23 07:58:08;;;;;;;32.03;22.10;;;2.60;1.00;;;;;;6257635;28;20738;-55
2023/01/23 08:01:11;;;;;;;32.63;22.83;;;2.60;1.00;;;;;;6261824;28;20252;-56
2023/01/23 08:04:16;;;;;;;30.43;22.17;;;2.60;1.00;;;;;;6258367;28;20773;-55
2023/01/23 08:07:19;;;;;;;29.33;20.67;;;2.70;1.00;;;;;;6256914;28;20234;-55
2023/01/23 08:10:22;;;;;;;26.63;20.47;;;3.00;1.00;;;;;;6256986;28;20245;-54
2023/01/23 08:13:25;;;;;;;31.33;21.67;;;2.80;1.00;;;;;;6249759;28;20265;-54
2023/01/23 08:16:28;;;;;;;31.87;23.10;;;2.60;1.00;;;;;;6266302;28;20236;-55
2023/01/23 08:19:33;;;;;;;29.27;21.57;;;2.70;1.00;;;;;;6256047;28;20248;-58
2023/01/23 08:22:39;;;;;;;32.50;22.13;;;2.90;1.00;;;;;;6253459;28;20241;-54
2023/01/23 08:25:42;;;;;;;30.63;20.83;;;2.80;1.00;;;;;;6257753;28;20319;-55
2023/01/23 08:28:46;;;;;;;35.00;22.63;;;2.60;1.00;;;;;;6256608;28;20302;-54
2023/01/23 08:31:50;;;;;;;28.03;21.10;;;2.60;1.00;;;;;;6254304;28;20245;-54
2023/01/23 08:34:55;;;;;;;29.13;21.50;;;2.60;1.00;;;;;;6258790;28;20241;-54
2023/01/23 08:37:58;;;;;;;34.00;22.57;;;2.80;1.00;;;;;;6253642;28;20234;-56
2023/01/23 08:41:03;;;;;;;28.77;19.67;;;2.60;1.00;;;;;;6254375;28;20237;-54
2023/01/23 08:44:06;;;;;;;32.30;21.97;;;2.60;1.00;;;;;;6257037;28;20496;-55
2023/01/23 08:47:09;;;;;;;29.07;21.53;;;2.80;1.00;;;;;;6254778;28;20792;-54
2023/01/23 08:50:13;;;;;;;31.93;22.43;;;2.60;1.00;;;;;;6260113;28;20725;-55
2023/01/23 08:53:16;;;;;;;32.07;22.30;;;2.50;1.00;;;;;;6258878;28;20238;-54
2023/01/23 08:56:22;;;;;;;32.30;22.87;;;2.60;1.00;;;;;;6258223;28;20249;-55
2023/01/23 08:59:25;;;;;;;32.17;22.07;;;2.60;1.00;;;;;;6257326;28;20622;-56
2023/01/23 09:02:28;;;;;;;30.13;21.10;;;2.70;1.00;;;;;;6262078;28;20225;-55
2023/01/23 09:05:33;;;;;;;29.93;22.83;;;2.70;1.00;;;;;;6255413;28;20245;-54
2023/01/23 09:08:36;;;;;;;33.43;21.07;;;2.90;1.00;;;;;;6261664;28;20496;-56
2023/01/23 09:11:39;;;;;;;31.30;22.70;;;2.90;1.00;;;;;;6255688;28;20249;-55
2023/01/23 09:14:42;;;;;;;30.40;21.40;;;2.90;1.00;;;;;;6248614;28;20241;-55
2023/01/23 09:17:45;;;;;;;26.23;22.17;;;2.70;1.00;;;;;;6254363;28;20257;-54
2023/01/23 09:20:50;;;;;;;28.83;21.70;;;2.90;1.00;;;;;;6261613;28;20234;-54
2023/01/23 09:23:53;;;;;;;31.60;23.13;;;2.60;1.00;;;;;;6249390;28;20226;-54
2023/01/23 09:26:56;;;;;;;30.40;22.50;;;2.90;1.00;;;;;;6256708;28;20405;-55
2023/01/23 09:29:59;;;;;;;28.30;21.73;;;3.00;1.00;;;;;;6245616;28;20229;-55
2023/01/23 09:33:02;;;;;;;31.40;22.23;;;2.80;1.00;;;;;;6256013;28;20230;-55
2023/01/23 09:36:08;;;;;;;28.13;21.27;;;2.90;1.00;;;;;;6255555;28;20241;-55
2023/01/23 09:39:11;;;;;;;30.50;21.63;;;3.10;1.00;;;;;;6258777;28;20645;-54
2023/01/23 09:42:19;;;;;;;27.83;21.03;;;3.10;1.00;;;;;;6260453;28;20237;-55
2023/01/23 09:45:26;;;;;;;28.57;21.60;;;3.10;1.00;;;;;;6253172;28;20238;-55
2023/01/23 09:48:33;;;;;;;30.50;22.27;;;3.10;1.00;;;;;;6262597;28;20245;-56
2023/01/23 09:51:48;;;;;;;28.23;20.00;;;3.10;1.00;;;;;;6260482;28;20241;-55
2023/01/23 09:54:55;;;;;;;24.27;20.03;;;3.20;1.00;;;;;;6259728;28;20241;-56
2023/01/23 09:58:02;;;;;;;27.40;20.10;;;2.90;1.00;;;;;;6267764;28;20604;-56
2023/01/23 10:01:05;;;;;;;29.17;21.93;;;3.20;1.00;;;;;;6262982;28;20586;-56
2023/01/23 10:04:12;;;;;;;29.20;21.97;;;3.40;1.00;;;;;;6264846;28;20936;-57
2023/01/23 10:07:29;;;;;;;29.90;22.13;;;3.50;1.00;;;;;;6258243;28;20339;-54
2023/01/23 10:10:58;;;;;;;29.67;21.33;;;3.30;1.00;;;;;;6254470;28;20242;-55
2023/01/23 10:14:15;;;;;;;29.80;22.47;;;3.40;1.00;;;;;;6234346;28;20460;-55
2023/01/23 10:17:25;;;;;;;29.23;21.50;;;3.40;1.00;;;;;;6259482;28;20230;-54
2023/01/23 10:20:52;;;;;;;28.50;21.40;;;3.40;1.00;;;;;;6250949;28;20871;-56
2023/01/23 10:24:04;;;;;;;29.43;22.47;;;3.40;1.00;;;;;;6260741;28;20253;-55
2023/01/23 10:27:17;;;;;;;31.93;22.00;;;3.40;1.00;;;;;;6264214;28;20594;-55
2023/01/23 10:30:26;;;;;;;28.33;20.57;;;3.30;1.00;;;;;;6258132;28;20230;-54
2023/01/23 10:33:37;;;;;;;29.00;22.00;;;3.40;1.00;;;;;;6263041;28;20745;-55
2023/01/23 10:37:00;;;;;;;29.70;22.17;;;3.40;1.00;;;;;;6251999;28;20253;-55
2023/01/23 10:40:10;;;;;;;29.80;20.80;;;3.50;1.00;;;;;;6259552;28;20230;-54
2023/01/23 10:43:14;;;;;;;26.90;20.60;;;3.40;1.00;;;;;;6258603;28;20261;-54
2023/01/23 10:46:20;;;;;;;25.97;21.13;;;3.40;1.00;;;;;;6257158;28;20617;-55
2023/01/23 10:49:33;;;;;;;30.97;21.10;;;3.50;1.00;;;;;;6258608;28;20242;-56
2023/01/23 10:52:38;;;;;;;26.47;21.03;;;3.30;1.00;;;;;;6259492;28;20242;-55
2023/01/23 10:55:45;;;;;;;26.27;19.77;;;3.60;1.00;;;;;;6255357;28;20230;-55
2023/01/23 10:58:48;;;;;;;28.57;21.40;;;3.40;1.00;;;;;;6258182;28;20575;-54
2023/01/23 11:02:02;;;;;;;29.60;22.73;;;3.40;1.00;;;;;;6259526;28;20742;-54
2023/01/23 11:05:37;;;;;;;25.30;20.93;;;3.40;1.00;;;;;;6258305;28;20237;-54
2023/01/23 11:08:57;;;;;;;26.37;20.40;;;3.40;1.00;;;;;;6253142;28;20339;-54
2023/01/23 11:12:04;;;;;;;26.40;20.57;;;3.50;1.00;;;;;;6258309;28;20237;-55
2023/01/23 11:15:21;;;;;;;30.43;21.90;;;3.60;1.00;;;;;;6257144;28;20238;-56
2023/01/23 11:18:32;;;;;;;32.23;21.43;;;3.60;1.00;;;;;;6259616;28;20299;-54
2023/01/23 11:21:37;;;;;;;25.07;19.83;;;3.80;1.00;;;;;;6265659;28;20656;-54
2023/01/23 11:24:40;;;;;;;27.53;21.37;;;3.80;1.00;;;;;;6259745;28;20292;-55
2023/01/23 11:27:56;;;;;;;26.47;20.07;;;3.70;1.00;;;;;;6254271;28;20234;-55
2023/01/23 11:31:05;;;;;;;24.63;20.00;;;3.70;1.00;;;;;;6261428;28;20221;-56
2023/01/23 11:34:24;;;;;;;27.10;20.70;;;3.90;1.00;;;;;;6253689;28;20238;-55
2023/01/23 11:37:32;;;;;;;26.20;20.10;;;3.80;1.00;;;;;;6244058;28;20230;-55
2023/01/23 11:40:36;;;;;;;27.87;21.07;;;3.70;1.00;;;;;;6254084;28;20234;-55
2023/01/23 11:43:41;;;;;;;25.30;20.30;;;3.80;1.00;;;;;;6257133;28;20714;-55
2023/01/23 11:47:12;;;;;;;27.77;22.10;;;3.80;1.00;;;;;;6259631;28;20845;-54
2023/01/23 11:50:49;;;;;;;30.07;20.63;;;3.70;1.00;;;;;;6250343;28;20694;-54
2023/01/23 11:54:10;;;;;;;25.00;20.77;;;3.90;1.00;;;;;;6172893;28;20754;-54
2023/01/23 11:57:22;;;;;;;25.53;19.93;;;3.80;1.00;;;;;;6254650;28;20234;-56
2023/01/23 12:00:32;;;;;;;26.20;20.50;;;3.70;1.00;;;;;;6257512;28;20745;-54
2023/01/23 12:04:06;;;;;;;25.40;20.70;;;3.90;1.00;;;;;;6262662;28;20570;-56
2023/01/23 12:07:17;;;;;;;26.33;20.33;;;3.80;1.00;;;;;;6264291;28;20274;-56
2023/01/23 12:10:29;;;;;;;27.27;21.07;;;3.70;1.00;;;;;;6249580;28;20595;-55
2023/01/23 12:13:51;;;;;;;23.73;19.50;;;3.70;1.00;;;;;;6250262;28;20230;-55
2023/01/23 12:17:07;;;;;;;23.80;18.90;;;3.70;1.00;;;;;;6253196;28;20233;-54
2023/01/23 12:20:38;;;;;;;24.57;19.10;;;3.80;1.00;;;;;;6257364;28;20498;-55
2023/01/23 12:23:59;;;;;;;25.20;19.10;;;3.90;1.00;;;;;;6247498;28;20730;-54
2023/01/23 12:27:13;;;;;;;20.53;16.90;;;3.90;1.00;;;;;;6257841;28;20711;-55
2023/01/23 12:30:42;;;;;;;22.67;16.70;;;3.80;1.00;;;;;;6264560;28;20241;-60
2023/01/23 12:34:07;;;;;;;21.60;17.80;;;3.90;1.00;;;;;;6266271;28;20673;-55
2023/01/23 12:37:25;;;;;;;21.27;16.07;;;4.00;1.00;;;;;;6250123;28;20234;-56
2023/01/23 12:40:40;;;;;;;20.03;15.90;;;4.00;1.00;;;;;;6254437;28;20271;-55
2023/01/23 12:43:50;;;;;;;17.97;15.50;;;4.00;1.00;;;;;;6257686;28;20237;-55
2023/01/23 12:47:01;;;;;;;21.03;16.73;;;4.30;1.00;;;;;;6259059;28;20236;-54
2023/01/23 12:50:16;;;;;;;18.07;15.20;;;4.20;1.00;;;;;;6254851;28;20246;-54
2023/01/23 12:53:22;;;;;;;21.93;16.27;;;4.30;1.00;;;;;;6252345;28;20269;-55
2023/01/23 12:56:29;;;;;;;18.27;16.10;;;4.30;1.00;;;;;;6258399;28;20719;-55
2023/01/23 12:59:49;;;;;;;19.30;16.10;;;4.30;1.00;;;;;;6254797;28;20241;-55
2023/01/23 13:02:58;;;;;;;17.23;15.23;;;4.10;1.00;;;;;;6255831;28;20710;-56
2023/01/23 13:06:20;;;;;;;17.57;15.73;;;4.10;1.00;;;;;;6252936;28;20226;-55
2023/01/23 13:09:32;;;;;;;19.77;16.97;;;4.10;1.00;;;;;;6256213;28;20581;-56
2023/01/23 13:12:35;;;;;;;18.90;15.60;;;4.10;1.00;;;;;;6258587;28;20326;-54
2023/01/23 13:15:38;;;;;;;22.17;17.07;;;4.10;1.00;;;;;;6249184;28;20307;-55
2023/01/23 13:22:32;;;;;;;20.60;16.00;;;4.20;1.00;;;;;;6171044;28;20236;-56
2023/01/23 13:25:37;;;;;;;17.73;15.63;;;4.00;1.00;;;;;;6183043;28;20290;-56
2023/01/23 13:28:41;;;;;;;16.27;14.77;;;3.90;1.00;;;;;;6257853;28;20768;-56
2023/01/23 13:31:51;;;;;;;17.07;15.30;;;4.10;1.00;;;;;;6255306;28;20265;-55
2023/01/23 13:34:55;;;;;;;16.70;14.50;;;4.00;1.00;;;;;;6259911;28;20432;-55
2023/01/23 13:38:00;;;;;;;15.67;14.07;;;4.00;1.00;;;;;;6258035;28;20346;-55
2023/01/23 13:41:31;;;;;;;16.77;14.37;;;4.20;1.00;;;;;;6259993;28;20245;-55
2023/01/23 13:44:37;;;;;;;18.53;15.13;;;4.10;1.00;;;;;;6258955;28;20395;-55
2023/01/23 13:51:25;;;;;;;18.40;14.60;;;4.20;1.00;;;;;;6158133;28;20243;-56
2023/01/23 13:58:22;;;;;;;18.07;14.67;;;4.10;1.00;;;;;;6039898;29;20240;-54
2023/01/23 14:05:26;;;;;;;17.17;14.60;;;4.30;1.00;;;;;;5927455;29;20280;-55
2023/01/23 14:08:47;;;;;;;15.20;13.60;;;4.30;1.00;;;;;;5882785;29;20245;-54
2023/01/23 14:19:24;;;;;;;15.27;13.67;;;4.00;1.00;;;;;;5834271;30;20250;-56
2023/01/23 14:22:43;;;;;;;17.10;14.33;;;3.80;1.00;;;;;;5847892;30;20241;-55
2023/01/23 14:25:47;;;;;;;17.10;14.07;;;3.90;1.00;;;;;;5892129;29;20275;-56
2023/01/23 14:28:56;;;;;;;18.57;14.50;;;3.90;1.00;;;;;;5931716;29;21036;-55
2023/01/23 14:32:00;;;;;;;14.90;13.40;;;3.80;1.00;;;;;;5956941;29;20237;-55
2023/01/23 14:35:15;;;;;;;16.20;13.70;;;3.70;1.00;;;;;;6022540;29;20297;-56
2023/01/23 14:38:28;;;;;;;15.70;13.87;;;3.80;1.00;;;;;;6086908;29;20720;-55
2023/01/23 14:41:34;;;;;;;14.83;13.23;;;3.70;1.00;;;;;;6085357;28;21206;-54
2023/01/23 14:44:46;;;;;;;16.00;13.93;;;3.80;1.00;;;;;;6172604;28;20228;-56
2023/01/23 14:47:50;;;;;;;16.13;13.63;;;3.90;1.00;;;;;;6246057;28;20226;-54
2023/01/23 14:51:14;;;;;;;15.73;13.03;;;3.50;1.00;;;;;;6258378;28;20245;-55
2023/01/23 14:54:20;;;;;;;15.67;13.57;;;3.70;1.00;;;;;;6257227;28;20238;-55
2023/01/23 14:57:27;;;;;;;14.67;13.20;;;3.70;1.00;;;;;;6261576;28;20267;-54
2023/01/23 15:00:31;;;;;;;14.83;13.23;;;3.50;1.00;;;;;;6257612;28;20240;-54
2023/01/23 15:03:37;;;;;;;19.53;13.33;;;3.60;1.00;;;;;;6260368;28;20237;-55
2023/01/23 15:06:40;;;;;;;15.20;13.43;;;3.50;1.00;;;;;;6264137;28;20238;-56
2023/01/23 15:09:45;;;;;;;17.33;13.53;;;3.60;1.00;;;;;;6256192;28;20230;-55
2023/01/23 15:12:51;;;;;;;16.63;13.80;;;3.60;1.00;;;;;;6258459;28;20258;-55
2023/01/23 15:15:58;;;;;;;16.00;13.23;;;3.60;1.00;;;;;;6251286;28;20261;-54
2023/01/23 15:19:05;;;;;;;15.67;13.87;;;3.50;1.00;;;;;;6255561;28;20435;-54
2023/01/23 15:22:19;;;;;;;15.53;13.67;;;3.30;1.00;;;;;;6245451;28;20230;-55
2023/01/23 15:25:29;;;;;;;15.77;14.00;;;3.40;1.00;;;;;;6249540;28;20238;-55
2023/01/23 15:28:38;;;;;;;14.80;13.40;;;3.50;1.00;;;;;;6253760;28;20916;-55
2023/01/23 15:31:45;;;;;;;15.90;14.27;;;3.30;1.00;;;;;;6251732;28;20238;-56
2023/01/23 15:34:54;;;;;;;17.20;14.17;;;3.40;1.00;;;;;;6259313;28;20861;-55
2023/01/23 15:38:03;;;;;;;15.80;13.97;;;3.50;1.00;;;;;;6256210;28;20248;-54
2023/01/23 15:41:10;;;;;;;19.13;14.30;;;3.30;1.00;;;;;;6246658;28;20653;-54
2023/01/23 15:44:14;;;;;;;16.13;14.17;;;3.30;1.00;;;;;;6256011;28;20234;-55
2023/01/23 15:47:19;;;;;;;15.73;13.60;;;3.40;1.00;;;;;;6253626;28;20308;-55
2023/01/23 15:50:22;;;;;;;15.97;14.37;;;3.30;1.00;;;;;;6242138;28;20241;-55
2023/01/23 15:53:25;;;;;;;15.93;14.23;;;3.30;1.00;;;;;;6255141;28;20233;-54
2023/01/23 15:56:31;;;;;;;16.17;14.30;;;3.10;1.00;;;;;;6255899;28;20875;-56
2023/01/23 15:59:35;;;;;;;16.90;14.33;;;3.40;1.00;;;;;;6249646;28;20262;-55
2023/01/23 16:02:39;;;;;;;15.97;14.30;;;3.20;1.00;;;;;;6257663;28;20575;-56
2023/01/23 16:05:58;;;;;;;14.93;13.33;;;3.10;1.00;;;;;;6239472;28;20835;-56
2023/01/23 16:09:02;;;;;;;16.87;14.97;;;3.30;1.00;;;;;;6243520;28;20238;-54
2023/01/23 16:12:16;;;;;;;16.07;14.37;;;3.20;1.00;;;;;;6246415;28;20641;-55
2023/01/23 16:15:21;;;;;;;15.40;13.80;;;3.20;1.00;;;;;;6257026;28;20433;-54
2023/01/23 16:18:25;;;;;;;16.20;14.50;;;3.30;1.00;;;;;;6254024;28;20244;-55
2023/01/23 16:21:30;;;;;;;19.90;15.20;;;3.20;1.00;;;;;;6271361;28;20229;-55
2023/01/23 16:24:39;;;;;;;16.40;14.70;;;3.30;1.00;;;;;;6256815;28;20246;-55
2023/01/23 16:27:43;;;;;;;15.93;14.33;;;3.20;1.00;;;;;;6259447;28;20238;-54
2023/01/23 16:30:47;;;;;;;16.73;14.33;;;3.20;1.00;;;;;;6262251;28;20230;-54
2023/01/23 16:33:52;;;;;;;15.37;13.77;;;2.80;1.00;;;;;;6257651;28;20629;-55
2023/01/23 16:36:57;;;;;;;17.77;14.47;;;3.10;1.00;;;;;;6245239;28;20240;-54
2023/01/23 16:40:00;;;;;;;17.80;14.80;;;3.00;1.00;;;;;;6255668;28;20630;-54
2023/01/23 16:43:04;;;;;;;16.80;14.53;;;2.80;1.00;;;;;;6244466;28;20239;-55